Mont Saint Michel — FNMT — position and weather

sailwx.info

Track history (hours):
 
Tides and Currents Weather Stations Pressure Air Temp Water Temp Dewpoint Dewpoint Depression Visibility Wind Speed Wind Dir Waves Ship Positions

Mont Saint Michel

Last reported at 2014-Dec-19 15:33 UTC. Time now 2014-Dec-19 15:47 UTC.
Position N 49°25' W 000°17'.

Length 173 m; beam 29 m.

Type: Ship. MMSI: 227023100.

Date/timePositionNaut miles runAvg speedWind from/ knotsBaromVisibWave heightAir tempDewpointWater temp
2014-Dec-19 15:33N 49°25' W 000°17'8 8.1
2014-Dec-19 14:34N 49°17' W 000°15'0 0.0
2014-Dec-19 13:33N 49°17' W 000°15'0 0.0
2014-Dec-19 12:33N 49°17' W 000°15'0 0.0
2014-Dec-19 11:33N 49°17' W 000°15'0 0.0
2014-Dec-19 10:32N 49°17' W 000°15'0 0.0
2014-Dec-19 09:33N 49°17' W 000°15'0 0.0
2014-Dec-19 08:33N 49°17' W 000°15'0 0.0
2014-Dec-19 07:32N 49°17' W 000°15'0 0.0
2014-Dec-19 06:34N 49°17' W 000°15'0 0.0
2014-Dec-19 05:34N 49°17' W 000°15'4 3.7
2014-Dec-19 04:32N 49°21' W 000°14'1616.1
2014-Dec-19 03:33N 49°37' W 000°16'5417.4
2014-Dec-19 00:27N 50°25' W 000°54'1516.5
2014-Dec-18 23:33N 50°39' W 001°01'1010.1
2014-Dec-18 22:33N 50°49' W 001°06'0 0.0
2014-Dec-18 21:33N 50°49' W 001°06'4 3.8
2014-Dec-18 20:33N 50°45' W 001°05'1818.2
2014-Dec-18 19:33N 50°29' W 000°52'4119.5
2014-Dec-18 17:26N 49°50' W 000°30'1819.9
2014-Dec-18 16:33N 49°33' W 000°23'1616.2
2014-Dec-18 15:33N 49°17' W 000°15'0 0.0
2014-Dec-18 14:33N 49°17' W 000°15'3 2.5
2014-Dec-18 13:33N 49°20' W 000°14'1919.4
2014-Dec-18 12:33N 49°38' W 000°23'5718.9
2014-Dec-18 09:34N 50°31' W 000°57'1817.8
2014-Dec-18 08:33N 50°47' W 001°07'1 1.3
2014-Dec-18 07:33N 50°49' W 001°06'0 0.1
2014-Dec-18 06:34N 50°49' W 001°06'1413.9
2014-Dec-18 05:33N 50°36' W 000°57'1514.7
2014-Dec-18 04:33N 50°23' W 000°47'4511.3
2014-Dec-18 00:33N 49°38' W 000°39'1111.1
2014-Dec-17 23:33N 49°30' W 000°26'1211.5
2014-Dec-17 22:33N 49°21' W 000°15'4 4.1
2014-Dec-17 21:33N 49°17' W 000°15'0 0.0
2014-Dec-17 20:33N 49°17' W 000°15'1111.4
2014-Dec-17 19:33N 49°29' W 000°17'6020.1
2014-Dec-17 16:33N 50°25' W 000°49'1918.9
2014-Dec-17 15:33N 50°43' W 000°60'7 6.9
2014-Dec-17 14:34N 50°49' W 001°06'0 0.0
2014-Dec-17 13:33N 50°49' W 001°06'5 4.7
2014-Dec-17 12:33N 50°44' W 001°04'1817.8
2014-Dec-17 11:33N 50°28' W 000°54'4219.7
2014-Dec-17 09:24N 49°48' W 000°31'1719.5
2014-Dec-17 08:34N 49°33' W 000°20'1615.6
2014-Dec-17 07:33N 49°17' W 000°15'0 0.0
2014-Dec-17 06:32N 49°17' W 000°15'0 0.1
2014-Dec-17 05:33N 49°17' W 000°15'1818.2
2014-Dec-17 04:32N 49°35' W 000°21'5016.8
2014-Dec-17 01:33N 50°22' W 000°49'1514.9
2014-Dec-17 00:33N 50°36' W 000°58'1312.9
2014-Dec-16 23:33N 50°47' W 001°07'1 1.4
2014-Dec-16 22:33N 50°49' W 001°06'0 0.0
2014-Dec-16 21:33N 50°49' W 001°06'6 5.6
2014-Dec-16 20:33N 50°44' W 001°02'1817.8
2014-Dec-16 19:33N 50°27' W 000°51'4220.0
2014-Dec-16 17:29N 49°48' W 000°29'1718.8
2014-Dec-16 16:33N 49°32' W 000°20'1514.6
2014-Dec-16 15:32N 49°17' W 000°15'0 0.0
2014-Dec-16 14:33N 49°17' W 000°15'2 1.9
2014-Dec-16 13:32N 49°19' W 000°15'2020.3
2014-Dec-16 12:33N 49°39' W 000°23'4020.1
2014-Dec-16 10:34N 50°16' W 000°46'2020.3
2014-Dec-16 09:34N 50°35' W 000°57'1515.0
2014-Dec-16 08:33N 50°49' W 001°07'1 0.6
2014-Dec-16 07:33N 50°49' W 001°06'0 0.1
2014-Dec-16 06:34N 50°49' W 001°06'1313.4
2014-Dec-16 05:33N 50°36' W 000°58'1211.8
2014-Dec-16 04:31N 50°25' W 000°50'1111.1
2014-Dec-16 03:33N 50°15' W 000°43'1110.8
2014-Dec-16 02:31N 50°05' W 000°38'2711.0
2014-Dec-16 00:06N 49°39' W 000°25'5 9.6
2014-Dec-15 23:33N 49°34' W 000°22'1211.5
2014-Dec-15 22:33N 49°23' W 000°16'6 6.2
2014-Dec-15 21:33N 49°17' W 000°15'0 0.0
2014-Dec-15 20:31N 49°17' W 000°15'1212.0
2014-Dec-15 19:33N 49°29' W 000°16'1817.8
2014-Dec-15 18:33N 49°45' W 000°28'4018.5
2014-Dec-15 16:24N 50°22' W 000°50'1719.5
2014-Dec-15 15:33N 50°38' W 000°59'1212.0
2014-Dec-15 14:33N 50°49' W 001°06'0 0.0
2014-Dec-15 13:33N 50°49' W 001°06'5 4.9
2014-Dec-15 12:33N 50°44' W 001°04'1717.3
2014-Dec-15 11:34N 50°28' W 000°53'3918.5
2014-Dec-15 09:26N 49°51' W 000°32'1719.1
2014-Dec-15 08:33N 49°36' W 000°23'1818.2
2014-Dec-15 07:33N 49°18' W 000°15'1 0.9
2014-Dec-15 06:32N 49°17' W 000°15'0 0.1
2014-Dec-15 05:33N 49°17' W 000°15'1111.4
2014-Dec-15 04:33N 49°29' W 000°18'1111.2
2014-Dec-15 03:33N 49°39' W 000°24'4816.0
2014-Dec-15 00:33N 50°24' W 000°49'1717.1
2014-Dec-14 23:34N 50°40' W 000°58'10 9.8
2014-Dec-14 22:33N 50°49' W 001°06'0 0.0
2014-Dec-14 21:34N 50°49' W 001°06'6 6.3
2014-Dec-14 20:34N 50°43' W 001°01'1615.6
2014-Dec-14 19:33N 50°29' W 000°52'4217.5
2014-Dec-14 17:09N 49°49' W 000°30'1220.0
2014-Dec-14 16:33N 49°38' W 000°24'1919.1
2014-Dec-14 15:33N 49°20' W 000°14'2 2.3
2014-Dec-14 14:33N 49°17' W 000°15'2 2.2
2014-Dec-14 13:31N 49°20' W 000°14'1819.1
2014-Dec-14 12:33N 49°37' W 000°22'4719.4
2014-Dec-14 10:09N 50°21' W 000°49'1118.8
2014-Dec-14 09:34N 50°31' W 000°54'1615.7
2014-Dec-14 08:33N 50°45' W 001°05'3 3.4
2014-Dec-14 07:33N 50°49' W 001°06'0 0.1
2014-Dec-14 06:34N 50°49' W 001°06'1212.3
2014-Dec-14 05:34N 50°37' W 000°58'1211.8
2014-Dec-14 04:34N 50°26' W 000°53'3911.2
2014-Dec-14 01:04N 49°50' W 000°31'611.1
2014-Dec-14 00:33N 49°44' W 000°28'1110.8
2014-Dec-13 23:33N 49°34' W 000°22'1010.5
2014-Dec-13 22:33N 49°24' W 000°17'7 7.1
2014-Dec-13 21:33N 49°17' W 000°15'0 0.0
2014-Dec-13 20:33N 49°17' W 000°15'1111.4
2014-Dec-13 19:33N 49°29' W 000°16'1818.3
2014-Dec-13 18:33N 49°45' W 000°27'3718.3
2014-Dec-13 16:32N 50°20' W 000°49'1818.9
2014-Dec-13 15:33N 50°37' W 000°58'1312.6
2014-Dec-13 14:33N 50°49' W 001°06'0 0.0
2014-Dec-13 13:33N 50°49' W 001°06'4 4.1
2014-Dec-13 12:33N 50°45' W 001°05'1818.0
2014-Dec-13 11:33N 50°28' W 000°54'4019.1
2014-Dec-13 09:26N 49°50' W 000°32'1719.5
2014-Dec-13 08:33N 49°34' W 000°22'1717.2
2014-Dec-13 07:33N 49°17' W 000°15'0 0.0
2014-Dec-13 06:33N 49°17' W 000°15'0 0.1
2014-Dec-13 05:33N 49°17' W 000°15'1211.9
2014-Dec-13 04:33N 49°29' W 000°19'1111.0
2014-Dec-13 03:33N 49°39' W 000°26'4112.8
2014-Dec-13 00:20N 50°18' W 000°46'1215.5
2014-Dec-12 23:33N 50°29' W 000°54'1514.9
2014-Dec-12 22:33N 50°43' W 001°01'6 6.1
2014-Dec-12 21:33N 50°49' W 001°06'0 0.0
2014-Dec-12 20:33N 50°49' W 001°06'0 0.0
2014-Dec-12 19:33N 50°49' W 001°06'5 5.5
2014-Dec-12 18:34N 50°44' W 001°02'1818.0
2014-Dec-12 17:33N 50°26' W 000°57'4418.4
2014-Dec-12 15:09N 49°42' W 000°49'1118.4
2014-Dec-12 14:33N 49°34' W 000°38'1817.6
2014-Dec-12 13:33N 49°23' W 000°17'6 5.6
2014-Dec-12 12:33N 49°17' W 000°15'0 0.0
2014-Dec-12 11:33N 49°17' W 000°15'0 0.0
2014-Dec-12 10:33N 49°17' W 000°15'0 0.1
2014-Dec-12 09:33N 49°17' W 000°15'0 0.0
2014-Dec-12 08:33N 49°17' W 000°15'0 0.0
2014-Dec-12 07:33N 49°17' W 000°15'0 0.0
2014-Dec-12 06:33N 49°17' W 000°15'9 9.1
2014-Dec-12 05:33N 49°26' W 000°17'1313.0
2014-Dec-12 04:33N 49°39' W 000°23'1312.6
2014-Dec-12 03:32N 49°51' W 000°29'3015.0
2014-Dec-12 01:31N 50°20' W 000°44'1515.5
2014-Dec-12 00:34N 50°33' W 000°55'1514.8
2014-Dec-11 23:33N 50°46' W 001°05'3 2.7
2014-Dec-11 22:33N 50°49' W 001°06'0 0.0
2014-Dec-11 21:33N 50°49' W 001°06'2 1.9
2014-Dec-11 20:34N 50°47' W 001°06'1817.7
2014-Dec-11 19:33N 50°31' W 000°53'4620.1
2014-Dec-11 17:17N 49°48' W 000°31'1520.1
2014-Dec-11 16:33N 49°34' W 000°22'1717.2
2014-Dec-11 15:32N 49°17' W 000°15'0 0.0
2014-Dec-11 14:32N 49°17' W 000°15'1 0.5
2014-Dec-11 13:32N 49°18' W 000°15'1919.8
2014-Dec-11 12:33N 49°37' W 000°22'4520.6
2014-Dec-11 10:23N 50°19' W 000°47'1720.1
2014-Dec-11 09:33N 50°34' W 000°56'1515.5
2014-Dec-11 08:33N 50°48' W 001°07'1 0.9
2014-Dec-11 07:33N 50°49' W 001°06'0 0.3
2014-Dec-11 06:33N 50°49' W 001°06'1212.5
2014-Dec-11 05:33N 50°37' W 000°58'1714.7
2014-Dec-11 04:25N 50°21' W 000°50'3511.9
2014-Dec-11 01:30N 49°48' W 000°33'1010.3
2014-Dec-11 00:33N 49°39' W 000°28'1010.5
2014-Dec-10 23:33N 49°29' W 000°23'1010.2
2014-Dec-10 22:33N 49°21' W 000°14'3 3.4
2014-Dec-10 21:33N 49°17' W 000°15'0 0.0
2014-Dec-10 20:32N 49°17' W 000°15'1212.3
2014-Dec-10 19:33N 49°29' W 000°17'2020.3
2014-Dec-10 18:33N 49°48' W 000°31'4019.9
2014-Dec-10 16:32N 50°25' W 000°52'1918.8
2014-Dec-10 15:33N 50°43' W 001°02'7 6.6
2014-Dec-10 14:33N 50°49' W 001°06'0 0.0
2014-Dec-10 13:33N 50°49' W 001°06'7 7.2
2014-Dec-10 12:34N 50°43' W 000°59'5719.1
2014-Dec-10 09:34N 49°49' W 000°29'1818.5
2014-Dec-10 08:34N 49°31' W 000°20'1414.2
2014-Dec-10 07:33N 49°17' W 000°15'0 0.0
2014-Dec-10 06:33N 49°17' W 000°15'0 0.1
2014-Dec-10 05:33N 49°17' W 000°15'1413.8
2014-Dec-10 04:34N 49°30' W 000°20'1616.1
2014-Dec-10 03:33N 49°46' W 000°29'3415.9
2014-Dec-10 01:24N 50°18' W 000°46'1417.1
2014-Dec-10 00:34N 50°31' W 000°55'1515.3
2014-Dec-09 23:33N 50°45' W 001°05'3 3.5
2014-Dec-09 22:34N 50°49' W 001°06'0 0.0
2014-Dec-09 21:34N 50°49' W 001°06'5 4.9
2014-Dec-09 20:33N 50°44' W 001°03'1918.1
2014-Dec-09 19:31N 50°27' W 000°52'2718.9
2014-Dec-09 18:05N 50°01' W 000°37'1019.2
2014-Dec-09 17:33N 49°52' W 000°31'2020.0
2014-Dec-09 16:33N 49°33' W 000°20'  
Track history (hours):
 
Tides and Currents Weather Stations Pressure Air Temp Water Temp Dewpoint Dewpoint Depression Visibility Wind Speed Wind Dir Waves Ship Positions

Mont Saint Michel

Last reported at 2014-Dec-19 15:33 UTC. Time now 2014-Dec-19 15:47 UTC.
Position N 49°25' W 000°17'.

Length 173 m; beam 29 m.

Type: Ship. MMSI: 227023100.

Date/timePositionNaut miles runAvg speedWind from/ knotsBaromVisibWave heightAir tempDewpointWater temp
2014-Dec-19 15:33N 49°25' W 000°17'8 8.1
2014-Dec-19 14:34N 49°17' W 000°15'0 0.0
2014-Dec-19 13:33N 49°17' W 000°15'0 0.0
2014-Dec-19 12:33N 49°17' W 000°15'0 0.0
2014-Dec-19 11:33N 49°17' W 000°15'0 0.0
2014-Dec-19 10:32N 49°17' W 000°15'0 0.0
2014-Dec-19 09:33N 49°17' W 000°15'0 0.0
2014-Dec-19 08:33N 49°17' W 000°15'0 0.0
2014-Dec-19 07:32N 49°17' W 000°15'0 0.0
2014-Dec-19 06:34N 49°17' W 000°15'0 0.0
2014-Dec-19 05:34N 49°17' W 000°15'4 3.7
2014-Dec-19 04:32N 49°21' W 000°14'1616.1
2014-Dec-19 03:33N 49°37' W 000°16'5417.4
2014-Dec-19 00:27N 50°25' W 000°54'1516.5
2014-Dec-18 23:33N 50°39' W 001°01'1010.1
2014-Dec-18 22:33N 50°49' W 001°06'0 0.0
2014-Dec-18 21:33N 50°49' W 001°06'4 3.8
2014-Dec-18 20:33N 50°45' W 001°05'1818.2
2014-Dec-18 19:33N 50°29' W 000°52'4119.5
2014-Dec-18 17:26N 49°50' W 000°30'1819.9
2014-Dec-18 16:33N 49°33' W 000°23'1616.2
2014-Dec-18 15:33N 49°17' W 000°15'0 0.0
2014-Dec-18 14:33N 49°17' W 000°15'3 2.5
2014-Dec-18 13:33N 49°20' W 000°14'1919.4
2014-Dec-18 12:33N 49°38' W 000°23'5718.9
2014-Dec-18 09:34N 50°31' W 000°57'1817.8
2014-Dec-18 08:33N 50°47' W 001°07'1 1.3
2014-Dec-18 07:33N 50°49' W 001°06'0 0.1
2014-Dec-18 06:34N 50°49' W 001°06'1413.9
2014-Dec-18 05:33N 50°36' W 000°57'1514.7
2014-Dec-18 04:33N 50°23' W 000°47'4511.3
2014-Dec-18 00:33N 49°38' W 000°39'1111.1
2014-Dec-17 23:33N 49°30' W 000°26'1211.5
2014-Dec-17 22:33N 49°21' W 000°15'4 4.1
2014-Dec-17 21:33N 49°17' W 000°15'0 0.0
2014-Dec-17 20:33N 49°17' W 000°15'1111.4
2014-Dec-17 19:33N 49°29' W 000°17'6020.1
2014-Dec-17 16:33N 50°25' W 000°49'1918.9
2014-Dec-17 15:33N 50°43' W 000°60'7 6.9
2014-Dec-17 14:34N 50°49' W 001°06'0 0.0
2014-Dec-17 13:33N 50°49' W 001°06'5 4.7
2014-Dec-17 12:33N 50°44' W 001°04'1817.8
2014-Dec-17 11:33N 50°28' W 000°54'4219.7
2014-Dec-17 09:24N 49°48' W 000°31'1719.5
2014-Dec-17 08:34N 49°33' W 000°20'1615.6
2014-Dec-17 07:33N 49°17' W 000°15'0 0.0
2014-Dec-17 06:32N 49°17' W 000°15'0 0.1
2014-Dec-17 05:33N 49°17' W 000°15'1818.2
2014-Dec-17 04:32N 49°35' W 000°21'5016.8
2014-Dec-17 01:33N 50°22' W 000°49'1514.9
2014-Dec-17 00:33N 50°36' W 000°58'1312.9
2014-Dec-16 23:33N 50°47' W 001°07'1 1.4
2014-Dec-16 22:33N 50°49' W 001°06'0 0.0
2014-Dec-16 21:33N 50°49' W 001°06'6 5.6
2014-Dec-16 20:33N 50°44' W 001°02'1817.8
2014-Dec-16 19:33N 50°27' W 000°51'4220.0
2014-Dec-16 17:29N 49°48' W 000°29'1718.8
2014-Dec-16 16:33N 49°32' W 000°20'1514.6
2014-Dec-16 15:32N 49°17' W 000°15'0 0.0
2014-Dec-16 14:33N 49°17' W 000°15'2 1.9
2014-Dec-16 13:32N 49°19' W 000°15'2020.3
2014-Dec-16 12:33N 49°39' W 000°23'4020.1
2014-Dec-16 10:34N 50°16' W 000°46'2020.3
2014-Dec-16 09:34N 50°35' W 000°57'1515.0
2014-Dec-16 08:33N 50°49' W 001°07'1 0.6
2014-Dec-16 07:33N 50°49' W 001°06'0 0.1
2014-Dec-16 06:34N 50°49' W 001°06'1313.4
2014-Dec-16 05:33N 50°36' W 000°58'1211.8
2014-Dec-16 04:31N 50°25' W 000°50'1111.1
2014-Dec-16 03:33N 50°15' W 000°43'1110.8
2014-Dec-16 02:31N 50°05' W 000°38'2711.0
2014-Dec-16 00:06N 49°39' W 000°25'5 9.6
2014-Dec-15 23:33N 49°34' W 000°22'1211.5
2014-Dec-15 22:33N 49°23' W 000°16'6 6.2
2014-Dec-15 21:33N 49°17' W 000°15'0 0.0
2014-Dec-15 20:31N 49°17' W 000°15'1212.0
2014-Dec-15 19:33N 49°29' W 000°16'1817.8
2014-Dec-15 18:33N 49°45' W 000°28'4018.5
2014-Dec-15 16:24N 50°22' W 000°50'1719.5
2014-Dec-15 15:33N 50°38' W 000°59'1212.0
2014-Dec-15 14:33N 50°49' W 001°06'0 0.0
2014-Dec-15 13:33N 50°49' W 001°06'5 4.9
2014-Dec-15 12:33N 50°44' W 001°04'1717.3
2014-Dec-15 11:34N 50°28' W 000°53'3918.5
2014-Dec-15 09:26N 49°51' W 000°32'1719.1
2014-Dec-15 08:33N 49°36' W 000°23'1818.2
2014-Dec-15 07:33N 49°18' W 000°15'1 0.9
2014-Dec-15 06:32N 49°17' W 000°15'0 0.1
2014-Dec-15 05:33N 49°17' W 000°15'1111.4
2014-Dec-15 04:33N 49°29' W 000°18'1111.2
2014-Dec-15 03:33N 49°39' W 000°24'4816.0
2014-Dec-15 00:33N 50°24' W 000°49'1717.1
2014-Dec-14 23:34N 50°40' W 000°58'10 9.8
2014-Dec-14 22:33N 50°49' W 001°06'0 0.0
2014-Dec-14 21:34N 50°49' W 001°06'6 6.3
2014-Dec-14 20:34N 50°43' W 001°01'1615.6
2014-Dec-14 19:33N 50°29' W 000°52'4217.5
2014-Dec-14 17:09N 49°49' W 000°30'1220.0
2014-Dec-14 16:33N 49°38' W 000°24'1919.1
2014-Dec-14 15:33N 49°20' W 000°14'2 2.3
2014-Dec-14 14:33N 49°17' W 000°15'2 2.2
2014-Dec-14 13:31N 49°20' W 000°14'1819.1
2014-Dec-14 12:33N 49°37' W 000°22'4719.4
2014-Dec-14 10:09N 50°21' W 000°49'1118.8
2014-Dec-14 09:34N 50°31' W 000°54'1615.7
2014-Dec-14 08:33N 50°45' W 001°05'3 3.4
2014-Dec-14 07:33N 50°49' W 001°06'0 0.1
2014-Dec-14 06:34N 50°49' W 001°06'1212.3
2014-Dec-14 05:34N 50°37' W 000°58'1211.8
2014-Dec-14 04:34N 50°26' W 000°53'3911.2
2014-Dec-14 01:04N 49°50' W 000°31'611.1
2014-Dec-14 00:33N 49°44' W 000°28'1110.8
2014-Dec-13 23:33N 49°34' W 000°22'1010.5
2014-Dec-13 22:33N 49°24' W 000°17'7 7.1
2014-Dec-13 21:33N 49°17' W 000°15'0 0.0
2014-Dec-13 20:33N 49°17' W 000°15'1111.4
2014-Dec-13 19:33N 49°29' W 000°16'1818.3
2014-Dec-13 18:33N 49°45' W 000°27'3718.3
2014-Dec-13 16:32N 50°20' W 000°49'1818.9
2014-Dec-13 15:33N 50°37' W 000°58'1312.6
2014-Dec-13 14:33N 50°49' W 001°06'0 0.0
2014-Dec-13 13:33N 50°49' W 001°06'4 4.1
2014-Dec-13 12:33N 50°45' W 001°05'1818.0
2014-Dec-13 11:33N 50°28' W 000°54'4019.1
2014-Dec-13 09:26N 49°50' W 000°32'1719.5
2014-Dec-13 08:33N 49°34' W 000°22'1717.2
2014-Dec-13 07:33N 49°17' W 000°15'0 0.0
2014-Dec-13 06:33N 49°17' W 000°15'0 0.1
2014-Dec-13 05:33N 49°17' W 000°15'1211.9
2014-Dec-13 04:33N 49°29' W 000°19'1111.0
2014-Dec-13 03:33N 49°39' W 000°26'4112.8
2014-Dec-13 00:20N 50°18' W 000°46'1215.5
2014-Dec-12 23:33N 50°29' W 000°54'1514.9
2014-Dec-12 22:33N 50°43' W 001°01'6 6.1
2014-Dec-12 21:33N 50°49' W 001°06'0 0.0
2014-Dec-12 20:33N 50°49' W 001°06'0 0.0
2014-Dec-12 19:33N 50°49' W 001°06'5 5.5
2014-Dec-12 18:34N 50°44' W 001°02'1818.0
2014-Dec-12 17:33N 50°26' W 000°57'4418.4
2014-Dec-12 15:09N 49°42' W 000°49'1118.4
2014-Dec-12 14:33N 49°34' W 000°38'1817.6
2014-Dec-12 13:33N 49°23' W 000°17'6 5.6
2014-Dec-12 12:33N 49°17' W 000°15'0 0.0
2014-Dec-12 11:33N 49°17' W 000°15'0 0.0
2014-Dec-12 10:33N 49°17' W 000°15'0 0.1
2014-Dec-12 09:33N 49°17' W 000°15'0 0.0
2014-Dec-12 08:33N 49°17' W 000°15'0 0.0
2014-Dec-12 07:33N 49°17' W 000°15'0 0.0
2014-Dec-12 06:33N 49°17' W 000°15'9 9.1
2014-Dec-12 05:33N 49°26' W 000°17'1313.0
2014-Dec-12 04:33N 49°39' W 000°23'1312.6
2014-Dec-12 03:32N 49°51' W 000°29'3015.0
2014-Dec-12 01:31N 50°20' W 000°44'1515.5
2014-Dec-12 00:34N 50°33' W 000°55'1514.8
2014-Dec-11 23:33N 50°46' W 001°05'3 2.7
2014-Dec-11 22:33N 50°49' W 001°06'0 0.0
2014-Dec-11 21:33N 50°49' W 001°06'2 1.9
2014-Dec-11 20:34N 50°47' W 001°06'1817.7
2014-Dec-11 19:33N 50°31' W 000°53'4620.1
2014-Dec-11 17:17N 49°48' W 000°31'1520.1
2014-Dec-11 16:33N 49°34' W 000°22'1717.2
2014-Dec-11 15:32N 49°17' W 000°15'0 0.0
2014-Dec-11 14:32N 49°17' W 000°15'1 0.5
2014-Dec-11 13:32N 49°18' W 000°15'1919.8
2014-Dec-11 12:33N 49°37' W 000°22'4520.6
2014-Dec-11 10:23N 50°19' W 000°47'1720.1
2014-Dec-11 09:33N 50°34' W 000°56'1515.5
2014-Dec-11 08:33N 50°48' W 001°07'1 0.9
2014-Dec-11 07:33N 50°49' W 001°06'0 0.3
2014-Dec-11 06:33N 50°49' W 001°06'1212.5
2014-Dec-11 05:33N 50°37' W 000°58'1714.7
2014-Dec-11 04:25N 50°21' W 000°50'3511.9
2014-Dec-11 01:30N 49°48' W 000°33'1010.3
2014-Dec-11 00:33N 49°39' W 000°28'1010.5
2014-Dec-10 23:33N 49°29' W 000°23'1010.2
2014-Dec-10 22:33N 49°21' W 000°14'3 3.4
2014-Dec-10 21:33N 49°17' W 000°15'0 0.0
2014-Dec-10 20:32N 49°17' W 000°15'1212.3
2014-Dec-10 19:33N 49°29' W 000°17'2020.3
2014-Dec-10 18:33N 49°48' W 000°31'4019.9
2014-Dec-10 16:32N 50°25' W 000°52'1918.8
2014-Dec-10 15:33N 50°43' W 001°02'7 6.6
2014-Dec-10 14:33N 50°49' W 001°06'0 0.0
2014-Dec-10 13:33N 50°49' W 001°06'7 7.2
2014-Dec-10 12:34N 50°43' W 000°59'5719.1
2014-Dec-10 09:34N 49°49' W 000°29'1818.5
2014-Dec-10 08:34N 49°31' W 000°20'1414.2
2014-Dec-10 07:33N 49°17' W 000°15'0 0.0
2014-Dec-10 06:33N 49°17' W 000°15'0 0.1
2014-Dec-10 05:33N 49°17' W 000°15'1413.8
2014-Dec-10 04:34N 49°30' W 000°20'1616.1
2014-Dec-10 03:33N 49°46' W 000°29'3415.9
2014-Dec-10 01:24N 50°18' W 000°46'1417.1
2014-Dec-10 00:34N 50°31' W 000°55'1515.3
2014-Dec-09 23:33N 50°45' W 001°05'3 3.5
2014-Dec-09 22:34N 50°49' W 001°06'0 0.0
2014-Dec-09 21:34N 50°49' W 001°06'5 4.9
2014-Dec-09 20:33N 50°44' W 001°03'1918.1
2014-Dec-09 19:31N 50°27' W 000°52'2718.9
2014-Dec-09 18:05N 50°01' W 000°37'1019.2
2014-Dec-09 17:33N 49°52' W 000°31'2020.0
2014-Dec-09 16:33N 49°33' W 000°20'  

Dump ship's entire track history